Time;durP1;ratioP1;P1;durP2;ratioP2;P2;SDS_P1;SDS_P2;PMS_P1;PMS_P2;Temp;Humidity;BMP_temperature;BMP_pressure;BME280_temperature;BME280_humidity;BME280_pressure;Samples;Min_cycle;Max_cycle;Signal;HPM_P1;HPM_P2
2023/05/28 00:01:07;;;;;;;1.23;0.73;;;15.60;99.90;;;;;;5025945;28;20219;-72
2023/05/28 00:03:35;;;;;;;1.15;1.15;;;15.50;99.90;;;;;;5014313;28;20292;-72
2023/05/28 00:06:04;;;;;;;1.15;0.70;;;15.50;99.90;;;;;;5017534;28;20290;-72
2023/05/28 00:08:34;;;;;;;0.60;0.60;;;15.50;99.90;;;;;;5014508;28;20220;-70
2023/05/28 00:11:02;;;;;;;0.70;0.70;;;15.40;99.90;;;;;;5021038;28;20203;-70
2023/05/28 00:13:32;;;;;;;1.00;0.80;;;15.40;99.90;;;;;;5013310;28;20604;-71
2023/05/28 00:16:00;;;;;;;1.50;0.82;;;15.40;99.90;;;;;;5012810;28;20237;-71
2023/05/28 00:18:30;;;;;;;1.13;1.02;;;15.40;99.90;;;;;;5018150;28;20571;-71
2023/05/28 00:20:58;;;;;;;0.73;0.52;;;15.30;99.90;;;;;;5028075;28;20212;-71
2023/05/28 00:23:26;;;;;;;0.70;0.60;;;15.30;99.90;;;;;;5025128;28;20288;-71
2023/05/28 00:25:55;;;;;;;0.90;0.70;;;15.20;99.90;;;;;;5025686;28;20230;-71
2023/05/28 00:28:23;;;;;;;0.70;0.50;;;15.30;99.90;;;;;;5025770;28;20211;-70
2023/05/28 00:30:51;;;;;;;0.80;0.65;;;15.20;99.90;;;;;;5019002;28;20686;-70
2023/05/28 00:33:19;;;;;;;2.67;1.33;;;15.20;99.90;;;;;;5017464;28;20232;-71
2023/05/28 00:35:47;;;;;;;0.80;0.73;;;15.20;99.90;;;;;;5019793;28;20217;-71
2023/05/28 00:38:15;;;;;;;1.38;0.98;;;15.20;99.90;;;;;;5011012;28;20228;-71
2023/05/28 00:40:44;;;;;;;0.70;0.50;;;15.30;99.90;;;;;;5010985;28;20613;-70
2023/05/28 00:43:15;;;;;;;1.00;0.60;;;15.40;99.90;;;;;;5012239;28;20205;-70
2023/05/28 00:45:43;;;;;;;1.38;0.80;;;15.40;99.90;;;;;;5019029;28;20304;-71
2023/05/28 00:48:12;;;;;;;0.60;0.50;;;15.30;99.90;;;;;;5021748;28;20664;-71
2023/05/28 00:50:40;;;;;;;0.90;0.75;;;15.20;99.90;;;;;;5010659;28;20205;-71
2023/05/28 00:53:09;;;;;;;0.80;0.70;;;15.20;99.90;;;;;;5018476;28;20271;-70
2023/05/28 00:55:38;;;;;;;0.70;0.60;;;15.20;99.90;;;;;;5016372;28;20726;-71
2023/05/28 00:58:07;;;;;;;0.80;0.50;;;15.10;99.90;;;;;;5012043;28;20220;-71
2023/05/28 01:00:38;;;;;;;0.90;0.82;;;15.10;99.90;;;;;;5011868;28;20220;-71
2023/05/28 01:03:06;;;;;;;0.60;0.50;;;15.10;99.90;;;;;;5011975;28;20213;-70
2023/05/28 01:05:34;;;;;;;0.60;0.47;;;15.10;99.90;;;;;;5018772;28;20271;-71
2023/05/28 01:08:04;;;;;;;0.90;0.50;;;15.10;99.90;;;;;;5027303;28;20208;-71
2023/05/28 01:10:33;;;;;;;0.60;0.50;;;15.00;99.90;;;;;;5025283;28;20291;-70
2023/05/28 01:13:05;;;;;;;0.70;0.57;;;15.10;99.90;;;;;;5011718;28;20217;-70
2023/05/28 01:15:33;;;;;;;0.75;0.63;;;14.90;99.90;;;;;;5025277;28;20225;-71
2023/05/28 01:18:04;;;;;;;0.80;0.50;;;14.80;99.90;;;;;;5031314;28;20630;-72
2023/05/28 01:20:32;;;;;;;0.80;0.68;;;14.90;99.90;;;;;;5011858;28;20209;-71
2023/05/28 01:23:05;;;;;;;1.45;0.90;;;14.80;99.90;;;;;;5011643;28;20248;-71
2023/05/28 01:25:37;;;;;;;1.40;0.65;;;14.80;99.90;;;;;;5015718;28;20246;-70
2023/05/28 01:28:13;;;;;;;0.70;0.50;;;14.90;99.90;;;;;;5011442;28;20706;-71
2023/05/28 01:30:43;;;;;;;1.50;0.50;;;14.90;99.90;;;;;;5019590;28;20220;-71
2023/05/28 01:33:12;;;;;;;1.10;1.00;;;14.80;99.90;;;;;;5011576;28;20217;-70
2023/05/28 01:35:40;;;;;;;0.70;0.47;;;14.90;99.90;;;;;;5015094;28;20232;-71
2023/05/28 01:38:10;;;;;;;1.40;1.05;;;14.90;99.90;;;;;;5011475;28;20213;-71
2023/05/28 01:40:42;;;;;;;0.60;0.52;;;14.90;99.90;;;;;;5013498;28;20236;-72
2023/05/28 01:43:10;;;;;;;0.70;0.60;;;14.90;99.90;;;;;;5021246;28;20668;-72
2023/05/28 01:45:39;;;;;;;1.05;0.65;;;14.80;99.90;;;;;;5020019;28;20696;-72
2023/05/28 01:48:08;;;;;;;1.02;0.75;;;14.80;99.90;;;;;;5030775;28;20204;-72
2023/05/28 01:50:36;;;;;;;0.70;0.70;;;14.70;99.90;;;;;;5014562;28;20209;-72
2023/05/28 01:53:04;;;;;;;1.17;0.88;;;14.70;99.90;;;;;;5016868;28;20730;-72
2023/05/28 01:55:32;;;;;;;0.70;0.60;;;14.60;99.90;;;;;;5012642;28;20331;-72
2023/05/28 01:58:02;;;;;;;0.68;0.63;;;14.60;99.90;;;;;;5011177;28;20827;-72
2023/05/28 02:00:30;;;;;;;1.10;0.60;;;14.60;99.90;;;;;;5018641;28;20247;-72
2023/05/28 02:02:58;;;;;;;0.70;0.60;;;14.60;99.90;;;;;;5025856;28;20567;-72
2023/05/28 02:05:26;;;;;;;0.90;0.75;;;14.70;99.90;;;;;;5010841;28;20233;-70
2023/05/28 02:07:56;;;;;;;1.08;0.70;;;14.70;99.90;;;;;;5011153;28;20220;-71
2023/05/28 02:10:24;;;;;;;0.80;0.73;;;14.70;99.90;;;;;;5010600;28;20213;-70
2023/05/28 02:12:52;;;;;;;1.42;0.80;;;14.60;99.90;;;;;;5013365;28;20549;-70
2023/05/28 02:15:22;;;;;;;0.70;0.52;;;14.70;99.90;;;;;;5023820;28;20695;-70
2023/05/28 02:17:50;;;;;;;0.75;0.75;;;14.60;99.90;;;;;;5022941;28;20263;-70
2023/05/28 02:20:19;;;;;;;0.70;0.52;;;14.60;99.90;;;;;;5014367;28;20219;-70
2023/05/28 02:22:47;;;;;;;1.02;0.73;;;14.60;99.90;;;;;;5027791;28;20216;-70
2023/05/28 02:25:16;;;;;;;0.70;0.55;;;14.60;99.90;;;;;;5029512;28;20764;-70
2023/05/28 02:27:44;;;;;;;1.15;0.70;;;14.50;99.90;;;;;;5026258;28;20205;-70
2023/05/28 02:30:14;;;;;;;0.85;0.85;;;14.40;99.90;;;;;;5014585;28;20240;-70
2023/05/28 02:32:43;;;;;;;0.70;0.57;;;14.40;99.90;;;;;;5013995;28;20217;-70
2023/05/28 02:35:12;;;;;;;2.15;0.70;;;14.40;99.90;;;;;;5018689;28;20644;-70
2023/05/28 02:37:40;;;;;;;1.13;0.90;;;14.40;99.90;;;;;;5010721;28;20239;-70
2023/05/28 02:40:10;;;;;;;0.77;0.65;;;14.40;99.90;;;;;;5013505;28;20211;-71
2023/05/28 02:42:37;;;;;;;0.60;0.43;;;14.30;99.90;;;;;;5011863;28;20209;-70
2023/05/28 02:45:06;;;;;;;0.80;0.70;;;14.30;99.90;;;;;;5014149;28;20591;-70
2023/05/28 02:47:34;;;;;;;1.00;0.80;;;14.30;99.90;;;;;;5030167;28;20294;-70
2023/05/28 02:50:05;;;;;;;0.77;0.60;;;14.30;99.90;;;;;;5016438;28;20217;-71
2023/05/28 02:52:33;;;;;;;1.50;0.90;;;14.30;99.90;;;;;;5016963;28;20217;-71
2023/05/28 02:55:02;;;;;;;1.40;1.02;;;14.20;99.90;;;;;;5010363;28;20339;-70
2023/05/28 02:57:30;;;;;;;0.70;0.55;;;14.20;99.90;;;;;;5022097;28;20204;-71
2023/05/28 02:59:57;;;;;;;0.90;0.80;;;14.20;99.90;;;;;;5027036;28;20544;-70
2023/05/28 03:02:25;;;;;;;1.17;1.05;;;14.20;99.90;;;;;;5029084;28;20220;-70
2023/05/28 03:04:53;;;;;;;1.50;1.10;;;14.20;99.90;;;;;;5025653;28;20755;-70
2023/05/28 03:07:23;;;;;;;0.80;0.60;;;14.10;99.90;;;;;;5028612;28;20208;-70
2023/05/28 03:09:51;;;;;;;1.60;0.73;;;14.20;99.90;;;;;;5026900;28;20208;-69
2023/05/28 03:12:19;;;;;;;1.13;0.70;;;14.30;99.90;;;;;;5027292;28;20212;-69
2023/05/28 03:14:47;;;;;;;1.17;1.02;;;14.30;99.90;;;;;;5025406;28;20986;-69
2023/05/28 03:17:14;;;;;;;0.80;0.80;;;14.30;99.90;;;;;;5022133;28;20206;-69
2023/05/28 03:19:43;;;;;;;7.18;1.48;;;14.30;99.90;;;;;;5019645;28;20237;-69
2023/05/28 03:22:11;;;;;;;1.08;0.95;;;14.30;99.90;;;;;;5022585;28;20201;-69
2023/05/28 03:24:40;;;;;;;0.80;0.80;;;14.30;99.90;;;;;;5022659;28;20223;-69
2023/05/28 03:27:08;;;;;;;0.93;0.82;;;14.40;99.90;;;;;;5029985;28;20211;-69
2023/05/28 03:29:36;;;;;;;2.03;0.77;;;14.40;99.90;;;;;;5028057;28;20207;-70
2023/05/28 03:32:04;;;;;;;0.68;0.55;;;14.40;99.90;;;;;;5030323;28;20213;-71
2023/05/28 03:34:33;;;;;;;1.05;0.90;;;14.30;99.90;;;;;;5031972;28;20233;-72
2023/05/28 03:37:01;;;;;;;0.98;0.90;;;14.20;99.90;;;;;;5031815;28;20258;-72
2023/05/28 03:39:29;;;;;;;0.80;0.80;;;14.20;99.90;;;;;;5031728;28;20216;-72
2023/05/28 03:41:58;;;;;;;0.90;0.70;;;14.20;99.90;;;;;;5031797;28;20204;-72
2023/05/28 03:44:26;;;;;;;0.70;0.70;;;14.20;99.90;;;;;;5031865;28;20208;-72
2023/05/28 03:46:54;;;;;;;2.25;0.68;;;14.20;99.90;;;;;;5020199;28;20205;-72
2023/05/28 03:49:22;;;;;;;0.80;0.60;;;14.30;99.90;;;;;;5024197;28;20215;-73
2023/05/28 03:51:50;;;;;;;0.70;0.50;;;14.30;99.90;;;;;;5030624;28;20209;-72
2023/05/28 03:54:18;;;;;;;0.70;0.60;;;14.20;99.90;;;;;;5016976;28;20216;-72
2023/05/28 03:56:46;;;;;;;0.60;0.50;;;14.20;99.90;;;;;;5133773;22;20606;-63
2023/05/28 03:59:15;;;;;;;1.13;0.80;;;14.20;99.90;;;;;;5012465;28;20723;-63
2023/05/28 04:01:43;;;;;;;1.02;0.93;;;14.20;99.90;;;;;;5013154;28;20206;-62
2023/05/28 04:04:11;;;;;;;1.20;1.10;;;14.10;99.90;;;;;;5014004;28;20214;-63
2023/05/28 04:06:39;;;;;;;1.17;0.75;;;14.10;99.90;;;;;;5012778;28;20283;-64
2023/05/28 04:09:08;;;;;;;2.55;1.05;;;14.10;99.90;;;;;;5011348;28;20220;-63
2023/05/28 04:11:37;;;;;;;0.85;0.70;;;14.10;99.90;;;;;;5011959;28;20263;-63
2023/05/28 04:14:06;;;;;;;0.90;0.60;;;14.10;99.90;;;;;;5012812;28;20236;-64
2023/05/28 04:16:35;;;;;;;1.00;0.68;;;14.10;99.90;;;;;;5009264;28;20741;-64
2023/05/28 04:19:03;;;;;;;0.93;0.80;;;14.10;99.90;;;;;;4998727;28;20233;-63
2023/05/28 04:21:31;;;;;;;1.00;0.90;;;13.90;99.90;;;;;;5012575;28;20241;-62
2023/05/28 04:24:00;;;;;;;0.88;0.70;;;13.90;99.90;;;;;;5012459;28;20202;-62
2023/05/28 04:26:28;;;;;;;1.02;0.60;;;13.80;99.90;;;;;;5008742;28;20300;-62
2023/05/28 04:28:56;;;;;;;1.10;1.00;;;13.80;99.90;;;;;;5012790;28;20214;-63
2023/05/28 04:31:26;;;;;;;2.15;0.90;;;13.90;99.90;;;;;;5011675;28;20213;-62
2023/05/28 04:33:56;;;;;;;0.80;0.80;;;13.90;99.90;;;;;;5012399;28;20277;-63
2023/05/28 04:36:29;;;;;;;0.80;0.63;;;14.00;99.90;;;;;;5012123;28;20240;-64
2023/05/28 04:39:00;;;;;;;0.90;0.65;;;14.00;99.90;;;;;;5012277;28;20263;-64
2023/05/28 04:41:28;;;;;;;0.93;0.82;;;14.00;99.90;;;;;;5012059;28;20263;-64
2023/05/28 04:43:57;;;;;;;0.95;0.75;;;13.90;99.90;;;;;;5012304;28;20559;-64
2023/05/28 04:46:29;;;;;;;0.98;0.80;;;13.90;99.90;;;;;;5003527;28;20226;-63
2023/05/28 04:48:58;;;;;;;0.80;0.77;;;13.90;99.90;;;;;;4997536;28;20229;-64
2023/05/28 04:51:26;;;;;;;0.90;0.80;;;14.00;99.90;;;;;;5001828;28;20288;-64
2023/05/28 04:53:54;;;;;;;0.70;0.60;;;14.00;99.90;;;;;;5008497;28;20244;-63
2023/05/28 04:56:22;;;;;;;3.53;0.88;;;14.00;99.90;;;;;;5005853;28;20739;-63
2023/05/28 04:58:51;;;;;;;2.75;0.80;;;14.10;99.90;;;;;;5012190;28;20672;-63
2023/05/28 05:01:19;;;;;;;0.98;0.82;;;14.10;99.90;;;;;;5006232;28;20292;-63
2023/05/28 05:03:47;;;;;;;0.73;0.70;;;14.20;99.90;;;;;;5007366;28;20628;-62
2023/05/28 05:06:16;;;;;;;0.70;0.50;;;14.30;99.90;;;;;;5011939;28;20283;-63
2023/05/28 05:08:44;;;;;;;1.23;0.50;;;14.40;99.90;;;;;;5011280;28;20259;-63
2023/05/28 05:11:15;;;;;;;0.70;0.57;;;14.60;99.90;;;;;;5011615;28;20667;-63
2023/05/28 05:13:43;;;;;;;0.70;0.50;;;14.60;99.90;;;;;;5011508;28;20417;-63
2023/05/28 05:16:12;;;;;;;1.38;1.00;;;14.70;99.90;;;;;;5004826;28;20236;-63
2023/05/28 05:18:40;;;;;;;0.95;0.65;;;14.90;99.90;;;;;;4994377;28;20256;-63
2023/05/28 05:21:09;;;;;;;1.50;0.93;;;14.90;99.90;;;;;;5011468;28;20209;-63
2023/05/28 05:23:39;;;;;;;0.93;0.60;;;15.10;99.90;;;;;;5010991;28;20213;-63
2023/05/28 05:26:09;;;;;;;1.00;0.75;;;15.00;99.90;;;;;;5006233;28;20696;-63
2023/05/28 05:28:37;;;;;;;0.80;0.73;;;15.10;99.90;;;;;;5011228;28;20220;-63
2023/05/28 05:31:05;;;;;;;0.80;0.75;;;15.20;99.90;;;;;;5011423;28;20209;-63
2023/05/28 05:33:33;;;;;;;0.90;0.73;;;15.20;99.90;;;;;;5011029;28;20213;-63
2023/05/28 05:36:01;;;;;;;0.90;0.73;;;15.20;99.90;;;;;;5011424;28;20236;-63
2023/05/28 05:38:31;;;;;;;1.17;0.60;;;15.30;99.90;;;;;;5010582;28;20216;-63
2023/05/28 05:41:01;;;;;;;0.98;0.85;;;15.40;99.90;;;;;;5011169;28;20209;-63
2023/05/28 05:43:29;;;;;;;0.80;0.70;;;15.50;99.90;;;;;;5010514;28;20615;-63
2023/05/28 05:45:57;;;;;;;0.60;0.50;;;15.60;99.90;;;;;;5006468;28;20237;-64
2023/05/28 05:48:27;;;;;;;0.70;0.60;;;15.70;99.90;;;;;;4991587;28;20597;-64
2023/05/28 05:50:55;;;;;;;0.60;0.50;;;15.80;99.90;;;;;;5011118;28;20267;-63
2023/05/28 05:53:23;;;;;;;1.08;0.70;;;16.00;99.90;;;;;;5010245;28;20592;-63
2023/05/28 05:55:51;;;;;;;1.08;0.63;;;16.10;99.90;;;;;;5010658;28;20233;-64
2023/05/28 05:58:22;;;;;;;0.60;0.50;;;16.20;99.90;;;;;;5011087;28;20622;-63
2023/05/28 06:00:51;;;;;;;0.90;0.60;;;16.20;99.90;;;;;;5011041;28;20585;-63
2023/05/28 06:03:19;;;;;;;0.95;0.80;;;16.20;99.90;;;;;;5008922;28;20209;-63
2023/05/28 06:05:47;;;;;;;0.95;0.50;;;16.30;99.90;;;;;;5006699;28;20232;-63
2023/05/28 06:08:15;;;;;;;0.60;0.50;;;16.40;99.90;;;;;;5004860;28;20212;-64
2023/05/28 06:10:43;;;;;;;0.70;0.68;;;16.60;99.90;;;;;;5002262;28;20275;-64
2023/05/28 06:13:11;;;;;;;0.70;0.50;;;16.60;99.90;;;;;;5000521;28;20201;-64
2023/05/28 06:15:41;;;;;;;1.52;0.82;;;16.70;99.90;;;;;;5002784;28;20225;-63
2023/05/28 06:18:10;;;;;;;1.05;0.63;;;16.70;99.90;;;;;;4998693;28;20256;-63
2023/05/28 06:20:38;;;;;;;0.77;0.75;;;16.80;99.90;;;;;;5003638;28;20212;-62
2023/05/28 06:23:06;;;;;;;0.70;0.60;;;16.90;99.90;;;;;;5001578;28;20233;-64
2023/05/28 06:25:35;;;;;;;2.13;0.65;;;17.00;99.90;;;;;;5003127;28;20224;-64
2023/05/28 06:28:03;;;;;;;0.60;0.50;;;17.20;99.90;;;;;;5000323;28;20606;-64
2023/05/28 06:30:31;;;;;;;0.70;0.50;;;17.20;99.90;;;;;;5002699;28;20224;-64
2023/05/28 06:33:00;;;;;;;0.70;0.52;;;17.40;99.90;;;;;;5000110;28;20210;-64
2023/05/28 06:35:28;;;;;;;1.23;0.85;;;17.50;99.90;;;;;;5003007;28;20221;-64
2023/05/28 06:37:56;;;;;;;0.70;0.40;;;17.50;99.90;;;;;;5001781;28;20309;-63
2023/05/28 06:40:24;;;;;;;1.10;0.75;;;17.40;99.90;;;;;;5000697;28;20231;-64
2023/05/28 06:42:52;;;;;;;1.13;0.93;;;17.50;99.90;;;;;;4999593;28;20213;-64
2023/05/28 06:45:20;;;;;;;6.40;1.30;;;17.60;99.90;;;;;;4999086;28;20592;-63
2023/05/28 06:47:48;;;;;;;0.60;0.50;;;17.70;99.90;;;;;;5001523;28;20201;-64
2023/05/28 06:50:17;;;;;;;0.80;0.73;;;17.80;99.90;;;;;;5004825;28;20285;-63
2023/05/28 06:52:46;;;;;;;0.60;0.40;;;17.90;99.90;;;;;;5003131;28;20209;-63
2023/05/28 06:55:14;;;;;;;0.60;0.40;;;18.00;99.90;;;;;;5002249;28;20233;-63
2023/05/28 06:57:41;;;;;;;2.00;1.35;;;18.10;99.90;;;;;;5005991;28;20234;-62
2023/05/28 07:00:14;;;;;;;0.60;0.40;;;18.20;99.90;;;;;;5004579;28;20276;-64
2023/05/28 07:02:42;;;;;;;1.13;0.60;;;18.30;99.90;;;;;;5008247;28;20202;-63
2023/05/28 07:05:10;;;;;;;1.02;0.50;;;18.40;99.90;;;;;;5005826;28;20280;-63
2023/05/28 07:07:39;;;;;;;0.60;0.50;;;18.40;99.90;;;;;;5010488;28;20197;-63
2023/05/28 07:10:08;;;;;;;0.60;0.50;;;18.50;99.90;;;;;;5005669;28;20256;-64
2023/05/28 07:12:37;;;;;;;0.70;0.50;;;18.60;99.90;;;;;;5005719;28;20216;-64
2023/05/28 07:15:06;;;;;;;0.70;0.50;;;18.60;99.90;;;;;;5007187;28;20233;-64
2023/05/28 07:17:34;;;;;;;1.05;0.82;;;18.60;99.90;;;;;;5006535;28;20228;-62
2023/05/28 07:20:03;;;;;;;1.00;0.60;;;18.70;99.90;;;;;;5006570;28;20289;-61
2023/05/28 07:22:32;;;;;;;0.60;0.45;;;18.80;99.90;;;;;;5005350;28;20205;-62
2023/05/28 07:25:01;;;;;;;0.95;0.65;;;19.00;99.90;;;;;;5002627;28;20653;-62
2023/05/28 07:27:29;;;;;;;1.02;0.93;;;19.10;99.90;;;;;;5004586;28;20201;-62
2023/05/28 07:29:57;;;;;;;1.10;1.00;;;19.20;99.90;;;;;;5005913;28;20214;-63
2023/05/28 07:32:25;;;;;;;0.73;0.65;;;19.10;99.90;;;;;;5007722;28;20205;-62
2023/05/28 07:34:53;;;;;;;1.88;1.77;;;19.10;99.90;;;;;;5005855;28;20205;-64
2023/05/28 07:37:21;;;;;;;2.53;0.45;;;19.20;99.90;;;;;;5002330;28;20217;-62
2023/05/28 07:39:49;;;;;;;0.60;0.40;;;19.30;99.90;;;;;;5002830;28;20221;-63
2023/05/28 07:42:18;;;;;;;0.70;0.60;;;19.40;99.90;;;;;;5003117;28;20209;-62
2023/05/28 07:44:46;;;;;;;0.60;0.50;;;19.50;99.90;;;;;;5001549;28;20611;-63
2023/05/28 07:47:15;;;;;;;3.03;1.30;;;19.60;99.90;;;;;;5000704;28;20195;-62
2023/05/28 07:49:43;;;;;;;1.70;1.20;;;19.80;99.90;;;;;;5001981;28;21650;-62
2023/05/28 07:52:11;;;;;;;1.63;0.75;;;19.90;99.90;;;;;;5002904;28;20211;-62
2023/05/28 07:54:40;;;;;;;0.60;0.43;;;19.90;99.90;;;;;;4999986;28;20203;-61
2023/05/28 07:57:08;;;;;;;1.05;0.90;;;20.00;99.90;;;;;;5004027;28;20230;-63
2023/05/28 07:59:37;;;;;;;0.60;0.40;;;20.00;99.90;;;;;;5006055;28;20203;-63
2023/05/28 08:02:05;;;;;;;1.33;1.05;;;20.20;99.90;;;;;;5006079;28;20264;-63
2023/05/28 08:04:33;;;;;;;1.05;0.75;;;20.20;99.90;;;;;;5009737;28;20203;-63
2023/05/28 08:07:01;;;;;;;0.60;0.43;;;20.40;99.90;;;;;;5010718;28;20228;-63
2023/05/28 08:09:29;;;;;;;0.80;0.70;;;20.60;99.90;;;;;;5004589;28;20211;-62
2023/05/28 08:11:57;;;;;;;0.60;0.47;;;20.90;99.90;;;;;;5010129;28;20218;-63
2023/05/28 08:14:25;;;;;;;0.82;0.65;;;21.00;99.90;;;;;;5007041;28;20215;-63
2023/05/28 08:16:54;;;;;;;0.82;0.70;;;21.30;99.90;;;;;;5000260;28;20234;-64
2023/05/28 08:19:22;;;;;;;0.63;0.50;;;21.40;99.90;;;;;;5002484;28;20257;-63
2023/05/28 08:21:50;;;;;;;0.60;0.40;;;21.40;99.90;;;;;;5003328;28;20210;-63
2023/05/28 08:24:18;;;;;;;0.77;0.63;;;21.50;99.90;;;;;;5006008;28;20215;-63
2023/05/28 08:26:46;;;;;;;0.60;0.40;;;21.50;99.90;;;;;;5006869;28;20225;-62
2023/05/28 08:29:14;;;;;;;0.85;0.65;;;21.60;99.90;;;;;;5012034;28;20268;-63
2023/05/28 08:31:42;;;;;;;0.80;0.80;;;21.70;99.90;;;;;;5011980;28;20297;-63
2023/05/28 08:34:12;;;;;;;0.63;0.45;;;21.80;99.90;;;;;;5004731;28;20206;-63
2023/05/28 08:36:40;;;;;;;0.80;0.68;;;22.00;99.60;;;;;;5005847;28;20226;-63
2023/05/28 08:39:09;;;;;;;0.70;0.50;;;22.00;98.90;;;;;;5009408;28;20214;-63
2023/05/28 08:41:38;;;;;;;0.80;0.70;;;22.10;98.30;;;;;;5000058;28;20218;-64
2023/05/28 08:44:06;;;;;;;0.75;0.68;;;22.30;99.10;;;;;;4999214;28;20209;-62
2023/05/28 08:46:36;;;;;;;0.70;0.60;;;22.30;98.70;;;;;;5003358;28;20735;-62
2023/05/28 08:49:04;;;;;;;0.93;0.50;;;22.50;96.90;;;;;;5003271;28;20199;-63
2023/05/28 08:51:36;;;;;;;1.00;0.60;;;22.70;97.60;;;;;;5000513;28;20203;-63
2023/05/28 08:54:05;;;;;;;0.60;0.50;;;22.90;97.30;;;;;;5003043;28;20214;-63
2023/05/28 08:56:33;;;;;;;3.40;0.75;;;23.20;98.50;;;;;;5000898;28;20665;-62
2023/05/28 08:59:02;;;;;;;2.17;0.95;;;23.50;97.30;;;;;;5006386;28;20635;-61
2023/05/28 09:01:33;;;;;;;0.70;0.60;;;23.50;96.30;;;;;;5005676;28;20208;-62
2023/05/28 09:04:01;;;;;;;1.30;0.73;;;23.80;96.10;;;;;;5004130;28;20207;-63
2023/05/28 09:06:31;;;;;;;1.35;0.77;;;23.70;93.50;;;;;;5007564;28;20258;-64
2023/05/28 09:09:01;;;;;;;0.60;0.40;;;23.70;93.40;;;;;;5005351;28;20217;-64
2023/05/28 09:11:29;;;;;;;0.98;0.88;;;23.70;93.70;;;;;;5009084;28;20203;-63
2023/05/28 09:13:57;;;;;;;1.23;0.82;;;23.60;94.00;;;;;;5006143;28;20272;-64
2023/05/28 09:16:25;;;;;;;0.60;0.50;;;23.80;95.60;;;;;;5005242;28;20261;-63
2023/05/28 09:19:03;;;;;;;0.70;0.60;;;24.00;93.30;;;;;;5005188;28;20244;-64
2023/05/28 09:21:32;;;;;;;1.50;0.90;;;24.30;94.50;;;;;;5006935;28;20211;-63
2023/05/28 09:24:01;;;;;;;0.70;0.57;;;24.40;93.90;;;;;;4995215;28;20216;-63
2023/05/28 09:26:30;;;;;;;0.70;0.60;;;24.30;93.80;;;;;;5003188;28;20293;-63
2023/05/28 09:28:58;;;;;;;1.30;1.10;;;24.10;92.00;;;;;;5003796;28;20212;-64
2023/05/28 09:31:32;;;;;;;0.65;0.45;;;24.20;92.90;;;;;;5005299;28;20266;-61
2023/05/28 09:34:04;;;;;;;0.73;0.60;;;24.40;94.10;;;;;;4999381;28;20578;-64
2023/05/28 09:36:32;;;;;;;0.80;0.60;;;24.40;92.90;;;;;;5003598;28;20293;-63
2023/05/28 09:39:08;;;;;;;1.40;0.70;;;24.70;92.90;;;;;;4999777;28;20711;-63
2023/05/28 09:41:40;;;;;;;0.60;0.50;;;24.60;91.80;;;;;;5000145;28;20200;-63
2023/05/28 09:44:10;;;;;;;0.60;0.40;;;24.70;92.50;;;;;;5001501;28;20224;-64
2023/05/28 09:46:38;;;;;;;0.60;0.50;;;24.90;92.50;;;;;;5006934;28;20646;-65
2023/05/28 09:49:06;;;;;;;0.70;0.50;;;25.10;93.00;;;;;;5003071;28;20291;-63
2023/05/28 09:51:35;;;;;;;1.13;1.02;;;25.40;92.00;;;;;;5007591;28;20216;-63
2023/05/28 09:54:06;;;;;;;0.73;0.70;;;25.70;90.60;;;;;;5005992;28;20212;-64
2023/05/28 09:56:34;;;;;;;0.70;0.50;;;25.80;92.30;;;;;;5121230;22;20238;-70
2023/05/28 09:59:07;;;;;;;0.70;0.70;;;25.80;91.00;;;;;;5029778;28;20220;-70
2023/05/28 10:01:41;;;;;;;0.70;0.60;;;25.80;91.30;;;;;;5028000;28;20570;-71
2023/05/28 10:04:10;;;;;;;0.70;0.60;;;25.90;91.10;;;;;;5031292;28;20236;-70
2023/05/28 10:06:41;;;;;;;0.60;0.50;;;25.90;90.60;;;;;;5029917;28;20238;-70
2023/05/28 10:09:13;;;;;;;0.80;0.60;;;25.80;91.10;;;;;;5030749;28;20668;-70
2023/05/28 10:11:44;;;;;;;0.70;0.60;;;25.90;91.50;;;;;;5030106;28;20258;-70
2023/05/28 10:14:12;;;;;;;1.08;0.70;;;26.10;92.70;;;;;;5029811;28;20234;-70
2023/05/28 10:16:41;;;;;;;1.23;0.60;;;26.30;91.10;;;;;;5029892;28;20231;-70
2023/05/28 10:19:10;;;;;;;0.60;0.40;;;26.20;89.20;;;;;;5036844;28;20639;-70
2023/05/28 10:21:39;;;;;;;0.70;0.50;;;26.40;91.60;;;;;;5049530;28;20709;-70
2023/05/28 10:24:07;;;;;;;0.70;0.70;;;26.50;89.30;;;;;;5050152;28;20573;-69
2023/05/28 10:26:36;;;;;;;0.93;0.80;;;26.20;87.90;;;;;;5050041;28;20222;-71
2023/05/28 10:29:08;;;;;;;0.63;0.63;;;26.10;88.10;;;;;;5050374;28;20711;-70
2023/05/28 10:31:36;;;;;;;2.17;0.60;;;26.20;89.70;;;;;;5033540;28;20295;-70
2023/05/28 10:34:15;;;;;;;0.90;0.63;;;26.50;87.90;;;;;;5036476;28;20208;-68
2023/05/28 10:36:51;;;;;;;0.60;0.50;;;26.60;84.20;;;;;;5039587;28;20292;-70
2023/05/28 10:39:39;;;;;;;0.90;0.90;;;26.60;82.50;;;;;;5036750;28;20221;-68
2023/05/28 10:42:09;;;;;;;0.60;0.40;;;26.60;80.90;;;;;;5035484;28;20209;-69
2023/05/28 10:45:04;;;;;;;1.05;0.77;;;26.70;79.70;;;;;;5038689;28;20215;-71
2023/05/28 10:47:33;;;;;;;0.60;0.40;;;26.60;77.30;;;;;;5031923;28;20587;-70
2023/05/28 10:50:10;;;;;;;1.20;1.05;;;26.80;80.50;;;;;;5037677;28;20810;-69
2023/05/28 10:52:44;;;;;;;0.80;0.70;;;27.00;77.60;;;;;;5039384;28;20697;-70
2023/05/28 10:55:13;;;;;;;0.90;0.75;;;27.20;77.50;;;;;;5037322;28;20203;-68
2023/05/28 10:57:46;;;;;;;0.70;0.40;;;27.20;76.20;;;;;;5037060;28;20196;-69
2023/05/28 11:00:23;;;;;;;0.70;0.63;;;27.00;74.30;;;;;;5033002;28;20226;-68
2023/05/28 11:02:52;;;;;;;1.25;0.60;;;27.30;75.70;;;;;;5035428;28;20214;-69
2023/05/28 11:05:25;;;;;;;0.70;0.52;;;27.20;76.50;;;;;;5037321;28;20303;-68
2023/05/28 11:07:55;;;;;;;0.80;0.65;;;27.40;76.80;;;;;;5035914;28;20207;-67
2023/05/28 11:10:23;;;;;;;1.30;0.95;;;27.60;72.50;;;;;;5037003;28;20216;-68
2023/05/28 11:12:52;;;;;;;0.77;0.60;;;27.90;74.00;;;;;;5036957;28;20587;-69
2023/05/28 11:15:22;;;;;;;0.60;0.45;;;28.30;73.60;;;;;;5036479;28;20201;-69
2023/05/28 11:17:50;;;;;;;0.70;0.60;;;28.30;72.20;;;;;;5030058;28;20262;-71
2023/05/28 11:20:20;;;;;;;0.70;0.50;;;27.60;71.70;;;;;;5036006;28;20585;-69
2023/05/28 11:22:49;;;;;;;1.63;0.50;;;27.50;72.50;;;;;;5037167;28;20675;-70
2023/05/28 11:25:17;;;;;;;1.08;0.82;;;27.50;74.30;;;;;;5035612;28;20215;-67
2023/05/28 11:27:48;;;;;;;1.30;1.20;;;27.50;75.20;;;;;;5038060;28;20223;-67
2023/05/28 11:30:18;;;;;;;0.60;0.50;;;27.40;73.80;;;;;;5053381;28;20201;-70
2023/05/28 11:32:48;;;;;;;0.60;0.50;;;27.90;72.80;;;;;;5052785;28;20314;-70
2023/05/28 11:35:17;;;;;;;0.70;0.68;;;28.00;74.70;;;;;;5049318;28;20227;-70
2023/05/28 11:37:46;;;;;;;0.80;0.70;;;28.20;73.70;;;;;;5052409;28;20219;-68
2023/05/28 11:40:16;;;;;;;0.80;0.60;;;28.00;71.90;;;;;;5052936;28;20589;-69
2023/05/28 11:42:45;;;;;;;3.67;0.93;;;28.20;72.80;;;;;;5051960;28;20192;-70
2023/05/28 11:45:14;;;;;;;1.25;1.15;;;28.20;70.50;;;;;;5036146;28;20200;-70
2023/05/28 11:47:43;;;;;;;1.90;0.88;;;28.20;72.20;;;;;;5032257;28;20254;-69
2023/05/28 11:50:14;;;;;;;0.80;0.70;;;28.30;72.10;;;;;;5034161;28;20671;-70
2023/05/28 11:52:42;;;;;;;0.57;0.40;;;28.20;70.70;;;;;;5032112;28;20254;-68
2023/05/28 11:55:11;;;;;;;0.95;0.60;;;28.40;69.80;;;;;;5033951;28;20200;-67
2023/05/28 11:57:43;;;;;;;0.60;0.50;;;28.50;72.50;;;;;;5050906;28;20239;-69
2023/05/28 12:00:15;;;;;;;0.95;0.80;;;28.50;71.60;;;;;;5051176;28;20323;-69
2023/05/28 12:02:46;;;;;;;0.80;0.70;;;28.50;72.00;;;;;;5052068;28;20662;-69
2023/05/28 12:05:15;;;;;;;1.08;0.70;;;28.70;69.80;;;;;;5052655;28;20204;-69
2023/05/28 12:07:46;;;;;;;0.60;0.45;;;29.50;69.40;;;;;;5052986;28;20199;-65
2023/05/28 12:10:16;;;;;;;0.70;0.50;;;29.60;67.90;;;;;;5051700;28;20202;-73
2023/05/28 12:12:46;;;;;;;1.00;0.90;;;29.20;68.60;;;;;;5050807;28;20713;-72
2023/05/28 12:15:15;;;;;;;0.70;0.50;;;29.00;69.60;;;;;;5047921;28;20200;-69
2023/05/28 12:17:46;;;;;;;0.80;0.80;;;29.30;68.00;;;;;;5032120;28;20290;-72
2023/05/28 12:20:34;;;;;;;1.25;0.57;;;29.40;68.20;;;;;;5032617;28;20247;-73
2023/05/28 12:23:04;;;;;;;1.08;0.70;;;29.30;64.60;;;;;;5030569;28;20249;-70
2023/05/28 12:25:47;;;;;;;1.10;0.80;;;29.40;63.20;;;;;;5051425;28;20224;-71
2023/05/28 12:28:17;;;;;;;1.52;1.42;;;29.40;62.50;;;;;;5049942;28;20212;-70
2023/05/28 12:30:50;;;;;;;0.80;0.80;;;29.10;63.70;;;;;;5052077;28;22772;-70
2023/05/28 12:33:20;;;;;;;0.70;0.60;;;29.50;62.80;;;;;;5050787;28;20222;-72
2023/05/28 12:35:48;;;;;;;0.60;0.40;;;29.80;65.60;;;;;;5048956;28;20216;-71
2023/05/28 12:38:16;;;;;;;0.60;0.50;;;29.80;66.00;;;;;;5051972;28;20268;-70
2023/05/28 12:40:44;;;;;;;1.65;0.70;;;29.90;64.60;;;;;;5052016;28;20243;-70
2023/05/28 12:43:12;;;;;;;0.97;0.87;;;30.00;62.60;;;;;;5051597;28;20215;-72
2023/05/28 12:45:40;;;;;;;0.73;0.45;;;30.30;62.10;;;;;;5043179;28;20718;-70
2023/05/28 12:48:09;;;;;;;0.60;0.47;;;30.40;62.90;;;;;;5031243;28;20210;-72
2023/05/28 12:50:38;;;;;;;0.70;0.70;;;30.30;63.80;;;;;;5041648;28;20283;-69
2023/05/28 12:53:07;;;;;;;0.70;0.60;;;30.60;60.40;;;;;;5051696;28;20626;-73
2023/05/28 12:55:35;;;;;;;0.90;0.80;;;31.00;59.50;;;;;;5051183;28;20697;-71
2023/05/28 12:58:03;;;;;;;1.00;0.80;;;30.60;58.20;;;;;;5051801;28;20621;-71